createdAt,value
2023-01-28T00:00:11.693Z,76.17
2023-01-28T00:02:40.374Z,75.72
2023-01-28T00:05:09.454Z,75.90
2023-01-28T00:07:37.994Z,75.17
2023-01-28T00:10:07.429Z,75.80
2023-01-28T00:12:36.217Z,76.03
2023-01-28T00:15:05.768Z,76.21
2023-01-28T00:17:36.802Z,76.41
2023-01-28T00:20:06.115Z,75.21
2023-01-28T00:22:34.837Z,74.66
2023-01-28T00:25:03.326Z,74.42
2023-01-28T00:27:32.097Z,74.93
2023-01-28T00:30:00.625Z,74.33
2023-01-28T00:32:29.151Z,74.19
2023-01-28T00:34:58.899Z,74.46
2023-01-28T00:37:27.447Z,74.23
2023-01-28T00:39:56.396Z,74.43
2023-01-28T00:42:24.886Z,73.39
2023-01-28T00:44:53.319Z,73.49
2023-01-28T00:47:22.493Z,73.29
2023-01-28T00:49:50.903Z,74.25
2023-01-28T00:52:20.898Z,73.84
2023-01-28T00:54:49.819Z,74.51
2023-01-28T00:57:18.230Z,73.30
2023-01-28T00:59:46.747Z,73.42
2023-01-28T01:02:15.334Z,73.07
2023-01-28T01:04:54.742Z,73.02
2023-01-28T01:07:32.242Z,73.75
2023-01-28T01:10:01.149Z,73.43
2023-01-28T01:12:30.009Z,73.52
2023-01-28T01:14:58.874Z,73.73
2023-01-28T01:17:27.367Z,73.85
2023-01-28T01:19:55.776Z,74.18
2023-01-28T01:22:25.873Z,74.43
2023-01-28T01:24:54.366Z,74.39
2023-01-28T01:27:23.187Z,74.91
2023-01-28T01:29:51.659Z,73.90
2023-01-28T01:32:20.366Z,74.00
2023-01-28T01:34:49.402Z,73.77
2023-01-28T01:37:17.947Z,73.10
2023-01-28T01:39:47.698Z,72.60
2023-01-28T01:42:16.645Z,73.24
2023-01-28T01:44:57.779Z,73.47
2023-01-28T01:47:32.936Z,72.28
2023-01-28T01:50:05.666Z,72.26
2023-01-28T01:52:36.948Z,72.53
2023-01-28T01:55:13.552Z,73.09
2023-01-28T01:57:43.868Z,72.98
2023-01-28T02:00:12.944Z,72.86
2023-01-28T02:02:45.308Z,73.22
2023-01-28T02:05:16.289Z,73.00
2023-01-28T02:07:47.085Z,73.57
2023-01-28T02:10:18.801Z,73.19
2023-01-28T02:12:54.859Z,73.84
2023-01-28T02:15:32.529Z,73.61
2023-01-28T02:18:01.502Z,72.71
2023-01-28T02:20:47.319Z,72.11
2023-01-28T02:23:35.503Z,72.79
2023-01-28T02:26:25.195Z,73.26
2023-01-28T02:29:00.030Z,73.51
2023-01-28T02:31:32.825Z,73.62
2023-01-28T02:34:12.617Z,73.46
2023-01-28T02:36:46.578Z,73.18
2023-01-28T02:39:20.010Z,72.97
2023-01-28T02:41:54.544Z,73.87
2023-01-28T02:44:24.620Z,73.71
2023-01-28T02:47:11.724Z,73.52
2023-01-28T02:49:44.189Z,74.29
2023-01-28T02:52:52.177Z,74.34
2023-01-28T02:55:31.675Z,74.54
2023-01-28T02:58:11.511Z,74.24
2023-01-28T03:00:48.351Z,74.41
2023-01-28T03:03:21.123Z,73.96
2023-01-28T03:06:05.167Z,73.47
2023-01-28T03:08:54.654Z,74.03
2023-01-28T03:11:41.366Z,73.91
2023-01-28T03:14:27.766Z,74.20
2023-01-28T03:17:18.213Z,75.01
2023-01-28T03:20:05.644Z,74.98
2023-01-28T03:22:56.016Z,74.99
2023-01-28T03:25:45.995Z,75.13
2023-01-28T03:28:37.078Z,75.28
2023-01-28T03:31:27.815Z,74.62
2023-01-28T03:34:17.093Z,72.25
2023-01-28T03:36:50.726Z,72.26
2023-01-28T03:39:23.020Z,73.40
2023-01-28T03:42:00.220Z,73.61
2023-01-28T03:44:49.051Z,73.64
2023-01-28T03:47:18.093Z,72.65
2023-01-28T03:49:50.156Z,72.74
2023-01-28T03:52:20.669Z,72.73
2023-01-28T03:54:50.060Z,72.86
2023-01-28T03:57:20.330Z,73.19
2023-01-28T03:59:49.789Z,72.79
2023-01-28T04:02:18.686Z,72.46
2023-01-28T04:04:50.079Z,73.65
2023-01-28T04:07:18.945Z,73.08
2023-01-28T04:09:47.317Z,72.67
2023-01-28T04:12:15.771Z,71.89
2023-01-28T04:14:44.282Z,71.28
2023-01-28T04:17:12.673Z,70.50
2023-01-28T04:19:41.949Z,70.37
2023-01-28T04:22:12.740Z,70.85
2023-01-28T04:24:41.268Z,71.14
2023-01-28T04:27:09.777Z,71.99
2023-01-28T04:29:38.201Z,72.22
2023-01-28T04:32:06.647Z,70.95
2023-01-28T04:34:35.078Z,70.06
2023-01-28T04:37:03.524Z,69.46
2023-01-28T04:39:33.386Z,69.04
2023-01-28T04:42:01.834Z,69.75
2023-01-28T04:44:30.268Z,69.89
2023-01-28T04:46:58.799Z,70.04
2023-01-28T04:49:27.233Z,70.32
2023-01-28T04:51:55.886Z,70.85
2023-01-28T04:54:24.469Z,71.29
2023-01-28T04:56:54.772Z,71.01
2023-01-28T04:59:24.293Z,71.38
2023-01-28T05:01:52.793Z,71.46
2023-01-28T05:04:21.363Z,71.41
2023-01-28T05:06:49.752Z,71.27
2023-01-28T05:09:18.467Z,69.82
2023-01-28T05:11:46.941Z,70.27
2023-01-28T05:14:16.680Z,70.09
2023-01-28T05:16:45.346Z,70.53
2023-01-28T05:19:13.928Z,70.32
2023-01-28T05:21:42.482Z,70.66
2023-01-28T05:24:11.489Z,70.59
2023-01-28T05:26:40.150Z,70.19
2023-01-28T05:29:08.788Z,70.77
2023-01-28T05:31:38.639Z,70.81
2023-01-28T05:34:07.040Z,70.90
2023-01-28T05:36:35.433Z,70.82
2023-01-28T05:39:03.853Z,71.35
2023-01-28T05:41:32.640Z,71.68
2023-01-28T05:44:01.308Z,71.16
2023-01-28T05:46:29.705Z,70.57
2023-01-28T05:48:59.704Z,70.88
2023-01-28T05:51:28.231Z,71.17
2023-01-28T05:53:56.946Z,69.87
2023-01-28T05:56:25.578Z,70.51
2023-01-28T05:58:54.049Z,71.40
2023-01-28T06:01:22.685Z,70.96
2023-01-28T06:03:51.147Z,70.51
2023-01-28T06:06:24.596Z,70.22
2023-01-28T06:08:55.324Z,71.05
2023-01-28T06:11:23.923Z,71.26
2023-01-28T06:13:52.852Z,70.34
2023-01-28T06:16:21.454Z,70.95
2023-01-28T06:18:49.849Z,71.06
2023-01-28T06:21:18.404Z,70.70
2023-01-28T06:23:48.212Z,70.98
2023-01-28T06:26:16.709Z,71.52
2023-01-28T06:28:45.256Z,71.79
2023-01-28T06:31:13.955Z,71.44
2023-01-28T06:33:42.808Z,71.36
2023-01-28T06:36:11.737Z,70.83
2023-01-28T06:38:44.323Z,70.34
2023-01-28T06:41:15.127Z,70.20
2023-01-28T06:43:44.337Z,71.05
2023-01-28T06:46:13.279Z,70.98
2023-01-28T06:48:41.868Z,70.80
2023-01-28T06:51:10.389Z,70.37
2023-01-28T06:53:39.037Z,70.64
2023-01-28T06:56:08.547Z,70.78
2023-01-28T06:58:38.761Z,70.58
2023-01-28T07:01:07.830Z,70.57
2023-01-28T07:03:37.557Z,70.86
2023-01-28T07:06:06.754Z,71.10
2023-01-28T07:08:35.759Z,71.15
2023-01-28T07:11:04.677Z,71.58
2023-01-28T07:13:33.882Z,71.02
2023-01-28T07:16:04.056Z,71.48
2023-01-28T07:18:32.470Z,71.21
2023-01-28T07:21:01.159Z,71.36
2023-01-28T07:23:29.697Z,70.71
2023-01-28T07:26:03.088Z,70.54
2023-01-28T07:28:34.815Z,70.52
2023-01-28T07:31:04.994Z,70.95
2023-01-28T07:33:34.032Z,70.90
2023-01-28T07:36:07.653Z,70.82
2023-01-28T07:38:36.424Z,71.45
2023-01-28T07:41:04.983Z,71.56
2023-01-28T07:43:33.436Z,71.62
2023-01-28T07:46:02.797Z,71.62
2023-01-28T07:48:32.865Z,71.46
2023-01-28T07:51:01.767Z,71.91
2023-01-28T07:53:30.358Z,69.52
2023-01-28T07:56:14.891Z,68.33
2023-01-28T07:58:43.672Z,68.71
2023-01-28T08:01:12.174Z,67.97
2023-01-28T08:03:41.930Z,68.11
2023-01-28T08:06:11.562Z,68.14
2023-01-28T08:08:40.148Z,67.08
2023-01-28T08:11:10.713Z,67.87
2023-01-28T08:13:39.183Z,67.95
2023-01-28T08:16:08.408Z,67.59
2023-01-28T08:18:36.900Z,68.43
2023-01-28T08:21:06.816Z,67.86
2023-01-28T08:23:35.519Z,69.04
2023-01-28T08:26:04.012Z,68.87
2023-01-28T08:28:32.577Z,69.29
2023-01-28T08:31:02.031Z,67.84
2023-01-28T08:33:30.900Z,68.48
2023-01-28T08:35:59.645Z,67.34
2023-01-28T08:38:29.490Z,67.71
2023-01-28T08:40:58.954Z,68.05
2023-01-28T08:43:27.412Z,66.45
2023-01-28T08:45:55.926Z,66.46
2023-01-28T08:48:24.470Z,66.91
2023-01-28T08:50:52.942Z,67.01
2023-01-28T08:53:25.122Z,66.84
2023-01-28T08:55:55.726Z,66.17
2023-01-28T08:58:24.352Z,66.29
2023-01-28T09:00:52.977Z,66.01
2023-01-28T09:03:21.490Z,67.07
2023-01-28T09:05:50.565Z,66.25
2023-01-28T09:08:19.144Z,66.23
2023-01-28T09:10:47.600Z,66.84
2023-01-28T09:13:17.867Z,66.51
2023-01-28T09:15:46.813Z,66.36
2023-01-28T09:18:15.582Z,66.20
2023-01-28T09:20:44.608Z,66.19
2023-01-28T09:23:14.954Z,65.17
2023-01-28T09:25:43.529Z,64.80
2023-01-28T09:28:12.102Z,65.86
2023-01-28T09:30:43.045Z,65.32
2023-01-28T09:33:11.549Z,65.18
2023-01-28T09:35:39.961Z,64.21
2023-01-28T09:38:08.432Z,64.79
2023-01-28T09:40:39.073Z,64.94
2023-01-28T09:43:27.563Z,64.54
2023-01-28T09:45:59.914Z,64.11
2023-01-28T09:48:34.046Z,63.27
2023-01-28T09:51:04.060Z,64.58
2023-01-28T09:53:36.415Z,64.59
2023-01-28T09:56:08.413Z,63.79
2023-01-28T09:58:37.099Z,63.81
2023-01-28T10:01:23.832Z,62.64
2023-01-28T10:03:56.548Z,62.74
2023-01-28T10:06:31.521Z,63.09
2023-01-28T10:09:15.422Z,62.58
2023-01-28T10:11:55.736Z,61.98
2023-01-28T10:14:37.638Z,60.95
2023-01-28T10:17:13.612Z,61.28
2023-01-28T10:19:48.155Z,61.93
2023-01-28T10:22:22.605Z,61.34
2023-01-28T10:24:57.575Z,60.71
2023-01-28T10:27:31.150Z,60.73
2023-01-28T10:30:01.655Z,61.04
2023-01-28T10:32:34.258Z,60.28
2023-01-28T10:35:03.701Z,59.77
2023-01-28T10:37:36.478Z,58.53
2023-01-28T10:40:06.472Z,59.05
2023-01-28T10:42:40.477Z,59.36
2023-01-28T10:45:18.951Z,59.58
2023-01-28T10:47:54.208Z,58.13
2023-01-28T10:50:25.662Z,58.91
2023-01-28T10:52:59.053Z,59.37
2023-01-28T10:55:30.981Z,59.45
2023-01-28T10:58:00.404Z,59.58
2023-01-28T11:00:32.750Z,59.58
2023-01-28T11:03:03.301Z,59.37
2023-01-28T11:05:32.397Z,60.10
2023-01-28T11:08:05.397Z,60.61
2023-01-28T11:10:37.140Z,61.46
2023-01-28T11:13:08.069Z,62.41
2023-01-28T11:15:36.795Z,62.43
2023-01-28T11:18:16.787Z,62.00
2023-01-28T11:20:52.701Z,62.78
2023-01-28T11:23:25.176Z,62.14
2023-01-28T11:26:16.875Z,61.42
2023-01-28T11:28:46.783Z,61.88
2023-01-28T11:31:17.592Z,62.08
2023-01-28T11:33:51.329Z,62.29
2023-01-28T11:36:22.165Z,60.81
2023-01-28T11:38:53.774Z,61.63
2023-01-28T11:41:29.559Z,61.40
2023-01-28T11:44:00.232Z,61.43
2023-01-28T11:46:49.097Z,61.57
2023-01-28T11:49:30.492Z,61.66
2023-01-28T11:52:09.171Z,61.11
2023-01-28T11:54:48.632Z,62.96
2023-01-28T11:57:24.782Z,62.63
2023-01-28T12:00:27.257Z,61.53
2023-01-28T12:03:06.292Z,60.09
2023-01-28T12:05:50.594Z,59.71
2023-01-28T12:08:25.043Z,59.51
2023-01-28T12:11:10.899Z,58.95
2023-01-28T12:13:53.933Z,56.62
2023-01-28T12:16:41.006Z,57.61
2023-01-28T12:19:22.919Z,58.02
2023-01-28T12:22:08.606Z,56.69
2023-01-28T12:24:53.635Z,54.91
2023-01-28T12:27:35.985Z,56.89
2023-01-28T12:30:19.482Z,59.00
2023-01-28T12:33:00.993Z,59.12
2023-01-28T12:35:36.668Z,59.90
2023-01-28T12:38:15.704Z,57.02
2023-01-28T12:40:49.047Z,52.56
2023-01-28T12:43:25.416Z,53.62
2023-01-28T12:45:58.762Z,55.94
2023-01-28T12:48:35.480Z,55.16
2023-01-28T12:51:09.265Z,53.43
2023-01-28T12:53:44.164Z,53.58
2023-01-28T12:56:16.851Z,51.74
2023-01-28T12:58:54.032Z,52.11
2023-01-28T13:01:31.926Z,51.37
2023-01-28T13:04:07.702Z,54.93
2023-01-28T13:06:45.440Z,55.65
2023-01-28T13:09:19.945Z,56.51
2023-01-28T13:11:51.373Z,54.32
2023-01-28T13:14:31.734Z,53.15
2023-01-28T13:17:10.605Z,52.61
2023-01-28T13:19:41.029Z,52.25
2023-01-28T13:22:25.700Z,51.93
2023-01-28T13:24:55.966Z,53.36
2023-01-28T13:27:27.377Z,54.09
2023-01-28T13:30:05.238Z,55.44
2023-01-28T13:32:36.676Z,55.49
2023-01-28T13:35:08.863Z,56.08
2023-01-28T13:37:40.568Z,55.69
2023-01-28T13:40:25.373Z,54.73
2023-01-28T13:43:03.624Z,54.69
2023-01-28T13:45:38.166Z,54.40
2023-01-28T13:48:23.839Z,48.68
2023-01-28T13:50:54.137Z,42.86
2023-01-28T13:53:34.292Z,38.85
2023-01-28T13:56:09.007Z,37.50
2023-01-28T13:59:05.171Z,36.36
2023-01-28T14:02:00.753Z,37.42
2023-01-28T14:04:57.073Z,35.98
2023-01-28T14:07:56.330Z,35.13
2023-01-28T14:10:38.954Z,34.26
2023-01-28T14:13:29.035Z,32.80
2023-01-28T14:16:13.651Z,32.31
2023-01-28T14:18:45.255Z,31.57
2023-01-28T14:21:16.394Z,30.39
2023-01-28T14:23:52.757Z,29.90
2023-01-28T14:26:43.594Z,30.03
2023-01-28T14:29:25.682Z,32.50
2023-01-28T14:31:56.088Z,34.50
2023-01-28T14:34:29.065Z,35.41
2023-01-28T14:37:02.667Z,35.96
2023-01-28T14:39:35.857Z,35.03
2023-01-28T14:42:05.166Z,34.14
2023-01-28T14:44:37.714Z,36.03
2023-01-28T14:47:37.583Z,38.03
2023-01-28T14:50:23.736Z,38.68
2023-01-28T14:53:19.113Z,40.62
2023-01-28T14:55:54.187Z,45.39
2023-01-28T14:58:26.602Z,48.11
2023-01-28T15:00:59.228Z,50.41
2023-01-28T15:03:41.341Z,52.86
2023-01-28T15:06:15.284Z,54.19
2023-01-28T15:08:44.057Z,56.21
2023-01-28T15:11:16.275Z,56.56
2023-01-28T15:13:47.209Z,57.69
2023-01-28T15:16:21.399Z,58.12
2023-01-28T15:18:52.895Z,58.79
2023-01-28T15:21:22.939Z,58.60
2023-01-28T15:23:54.515Z,59.47
2023-01-28T15:26:26.649Z,60.66
2023-01-28T15:28:56.976Z,61.62
2023-01-28T15:31:30.371Z,62.03
2023-01-28T15:34:00.356Z,63.05
2023-01-28T15:36:30.231Z,64.14
2023-01-28T15:38:59.634Z,64.45
2023-01-28T15:41:33.337Z,64.87
2023-01-28T15:44:02.531Z,65.69
2023-01-28T15:46:32.491Z,65.21
2023-01-28T15:49:03.472Z,65.65
2023-01-28T15:51:33.903Z,65.57
2023-01-28T15:54:06.532Z,66.55
2023-01-28T15:56:35.913Z,67.33
2023-01-28T15:59:19.010Z,68.03
2023-01-28T16:01:49.072Z,68.15
2023-01-28T16:04:26.077Z,68.73
2023-01-28T16:06:56.820Z,69.85
2023-01-28T16:09:29.087Z,70.03
2023-01-28T16:12:03.136Z,70.73
2023-01-28T16:14:37.188Z,71.39
2023-01-28T16:17:07.459Z,72.01
2023-01-28T16:19:39.782Z,71.93
2023-01-28T16:22:19.238Z,72.16
2023-01-28T16:24:53.263Z,72.76
2023-01-28T16:27:23.663Z,73.18
2023-01-28T16:29:52.303Z,73.03
2023-01-28T16:32:35.528Z,74.03
2023-01-28T16:35:05.774Z,74.41
2023-01-28T16:37:34.388Z,74.62
2023-01-28T16:40:02.836Z,75.42
2023-01-28T16:42:32.493Z,75.84
2023-01-28T16:45:00.874Z,76.44
2023-01-28T16:47:31.171Z,76.57
2023-01-28T16:49:59.890Z,77.02
2023-01-28T16:52:28.845Z,77.23
2023-01-28T16:54:57.199Z,77.33
2023-01-28T16:57:25.903Z,77.82
2023-01-28T16:59:54.858Z,78.19
2023-01-28T17:02:23.741Z,77.77
2023-01-28T17:04:53.946Z,78.57
2023-01-28T17:07:22.488Z,79.08
2023-01-28T17:09:51.142Z,79.46
2023-01-28T17:12:20.076Z,79.29
2023-01-28T17:14:48.868Z,79.56
2023-01-28T17:17:17.572Z,79.96
2023-01-28T17:19:46.407Z,79.95
2023-01-28T17:22:16.487Z,80.33
2023-01-28T17:24:46.368Z,80.75
2023-01-28T17:27:14.946Z,81.19
2023-01-28T17:29:43.295Z,81.24
2023-01-28T17:32:11.905Z,81.27
2023-01-28T17:34:40.537Z,82.02
2023-01-28T17:37:09.125Z,82.05
2023-01-28T17:39:39.026Z,82.24
2023-01-28T17:42:07.581Z,82.26
2023-01-28T17:44:35.970Z,82.52
2023-01-28T17:47:04.422Z,83.05
2023-01-28T17:49:33.108Z,82.74
2023-01-28T17:52:01.567Z,83.18
2023-01-28T17:54:30.068Z,83.19
2023-01-28T17:56:59.932Z,83.24
2023-01-28T17:59:28.652Z,83.68
2023-01-28T18:01:57.775Z,84.20
2023-01-28T18:04:26.419Z,84.49
2023-01-28T18:06:54.937Z,84.54
2023-01-28T18:09:23.625Z,84.63
2023-01-28T18:11:52.677Z,84.68
2023-01-28T18:14:22.637Z,84.77
2023-01-28T18:16:51.534Z,84.84
2023-01-28T18:19:19.961Z,85.21
2023-01-28T18:21:52.968Z,85.33
2023-01-28T18:24:23.383Z,85.39
2023-01-28T18:26:52.194Z,85.68
2023-01-28T18:29:24.043Z,85.44
2023-01-28T18:31:55.190Z,86.25
2023-01-28T18:34:25.076Z,86.37
2023-01-28T18:36:54.019Z,86.46
2023-01-28T18:39:23.218Z,86.47
2023-01-28T18:41:53.833Z,86.41
2023-01-28T18:44:25.303Z,86.78
2023-01-28T18:46:54.482Z,86.82
2023-01-28T18:49:23.067Z,87.12
2023-01-28T18:51:51.818Z,87.18
2023-01-28T18:54:20.955Z,86.97
2023-01-28T18:56:49.624Z,87.12
2023-01-28T18:59:18.834Z,87.27
2023-01-28T19:01:49.081Z,87.22
2023-01-28T19:04:20.576Z,87.44
2023-01-28T19:06:52.508Z,87.70
2023-01-28T19:09:21.680Z,87.41
2023-01-28T19:11:50.953Z,87.86
2023-01-28T19:14:19.449Z,87.87
2023-01-28T19:16:49.226Z,87.99
2023-01-28T19:19:18.374Z,88.71
2023-01-28T19:21:46.742Z,88.76
2023-01-28T19:24:15.236Z,88.65
2023-01-28T19:26:44.929Z,88.16
2023-01-28T19:29:15.893Z,88.30
2023-01-28T19:31:48.845Z,88.20
2023-01-28T19:34:21.205Z,88.95
2023-01-28T19:36:49.917Z,88.95
2023-01-28T19:39:18.438Z,89.18
2023-01-28T19:41:47.109Z,89.04
2023-01-28T19:44:15.674Z,88.92
2023-01-28T19:46:44.332Z,89.15
2023-01-28T19:49:13.042Z,89.24
2023-01-28T19:51:42.816Z,89.75
2023-01-28T19:54:11.298Z,89.57
2023-01-28T19:56:39.845Z,89.96
2023-01-28T19:59:08.418Z,90.07
2023-01-28T20:01:37.553Z,89.95
2023-01-28T20:04:06.110Z,90.42
2023-01-28T20:06:36.212Z,90.12
2023-01-28T20:09:10.037Z,90.62
2023-01-28T20:11:38.535Z,90.41
2023-01-28T20:14:07.459Z,90.27
2023-01-28T20:16:36.763Z,90.55
2023-01-28T20:19:07.317Z,90.91
2023-01-28T20:21:40.993Z,90.96
2023-01-28T20:24:12.911Z,91.14
2023-01-28T20:26:43.289Z,91.15
2023-01-28T20:29:14.239Z,91.38
2023-01-28T20:31:43.299Z,91.92
2023-01-28T20:34:15.860Z,91.54
2023-01-28T20:36:44.521Z,91.88
2023-01-28T20:39:15.034Z,91.82
2023-01-28T20:41:43.489Z,92.13
2023-01-28T20:44:12.244Z,91.71
2023-01-28T20:46:41.261Z,91.96
2023-01-28T20:49:10.571Z,91.87
2023-01-28T20:51:39.403Z,92.25
2023-01-28T20:54:08.220Z,92.24
2023-01-28T20:56:38.062Z,92.48
2023-01-28T20:59:07.540Z,92.19
2023-01-28T21:01:37.977Z,92.31
2023-01-28T21:04:13.526Z,92.36
2023-01-28T21:06:42.867Z,92.45
2023-01-28T21:09:11.855Z,92.51
2023-01-28T21:11:41.938Z,92.21
2023-01-28T21:14:12.993Z,92.58
2023-01-28T21:16:42.430Z,92.48
2023-01-28T21:19:12.312Z,92.40
2023-01-28T21:21:42.983Z,92.57
2023-01-28T21:24:12.967Z,92.73
2023-01-28T21:26:43.888Z,93.00
2023-01-28T21:29:14.632Z,92.44
2023-01-28T21:31:49.395Z,92.66
2023-01-28T21:34:18.699Z,92.15
2023-01-28T21:36:47.370Z,92.65
2023-01-28T21:39:16.119Z,93.11
2023-01-28T21:41:46.461Z,92.93
2023-01-28T21:44:15.110Z,92.76
2023-01-28T21:46:43.895Z,92.81
2023-01-28T21:49:12.806Z,92.97
2023-01-28T21:51:46.358Z,93.42
2023-01-28T21:54:16.714Z,93.56
2023-01-28T21:56:50.719Z,93.39
2023-01-28T21:59:30.764Z,93.56
2023-01-28T22:02:01.732Z,93.52
2023-01-28T22:04:32.778Z,93.24
2023-01-28T22:07:09.347Z,93.86
2023-01-28T22:09:39.829Z,93.71
2023-01-28T22:12:18.352Z,93.94
2023-01-28T22:14:51.486Z,93.59
2023-01-28T22:17:21.260Z,93.63
2023-01-28T22:19:51.997Z,93.57
2023-01-28T22:22:21.476Z,93.97
2023-01-28T22:24:51.693Z,94.32
2023-01-28T22:27:23.202Z,94.56
2023-01-28T22:29:54.247Z,94.75
2023-01-28T22:32:33.840Z,94.80
2023-01-28T22:35:05.242Z,94.53
2023-01-28T22:37:36.345Z,94.61
2023-01-28T22:40:05.341Z,94.71
2023-01-28T22:42:35.470Z,94.79
2023-01-28T22:45:04.324Z,94.92
2023-01-28T22:47:32.830Z,94.38
2023-01-28T22:50:01.434Z,94.22
2023-01-28T22:52:29.906Z,93.44
2023-01-28T22:54:58.383Z,92.91
2023-01-28T22:57:27.023Z,92.58
2023-01-28T23:00:00.474Z,92.70
2023-01-28T23:02:29.757Z,92.80
2023-01-28T23:04:58.446Z,92.08
2023-01-28T23:07:27.141Z,92.19
2023-01-28T23:09:55.576Z,91.96
2023-01-28T23:12:24.117Z,91.88
2023-01-28T23:15:10.244Z,91.64
2023-01-28T23:17:57.590Z,91.91
2023-01-28T23:20:43.727Z,92.06
2023-01-28T23:23:34.187Z,92.33
2023-01-28T23:26:04.656Z,92.68
2023-01-28T23:28:34.106Z,92.68
2023-01-28T23:31:02.758Z,92.86
2023-01-28T23:33:32.961Z,92.77
2023-01-28T23:36:01.812Z,93.06
2023-01-28T23:38:30.343Z,93.21
2023-01-28T23:40:58.812Z,93.52
2023-01-28T23:43:27.377Z,93.52
2023-01-28T23:45:55.866Z,94.01
2023-01-28T23:48:25.605Z,93.75
2023-01-28T23:50:56.982Z,93.85
2023-01-28T23:53:25.629Z,93.87
2023-01-28T23:55:54.234Z,93.65
2023-01-28T23:58:41.150Z,93.77
